createdAt,value
2017-09-21T15:22:37.906Z,35.77
2017-09-21T15:25:07.343Z,36.33
2017-09-21T15:27:48.439Z,35.50
2017-09-21T15:30:18.208Z,35.87
2017-09-21T15:32:47.844Z,36.03
2017-09-21T15:35:17.544Z,36.68
2017-09-21T15:37:46.585Z,36.88
2017-09-21T15:40:24.430Z,36.55
2017-09-21T15:42:54.732Z,37.03
2017-09-21T15:45:24.565Z,37.89
2017-09-21T15:47:53.848Z,37.21
2017-09-21T15:54:12.950Z,37.58
2017-09-21T15:57:01.092Z,37.80
2017-09-21T15:59:28.704Z,38.54
2017-09-21T16:01:56.192Z,39.09
2017-09-21T16:04:23.668Z,39.29
2017-09-21T16:06:51.521Z,39.24
2017-09-21T16:09:18.995Z,40.15
2017-09-21T16:11:46.673Z,40.92
2017-09-21T16:14:14.176Z,39.30
2017-09-21T16:16:41.782Z,39.45
2017-09-21T16:19:09.285Z,39.76
2017-09-21T16:21:36.773Z,40.26
2017-09-21T16:24:04.291Z,40.27
2017-09-21T16:26:32.544Z,40.42
2017-09-21T16:29:00.041Z,40.65
2017-09-21T16:31:27.687Z,40.61
2017-09-21T16:33:55.171Z,41.03
2017-09-21T16:36:22.744Z,40.82
2017-09-21T16:38:50.333Z,41.11
2017-09-21T16:41:18.005Z,40.94
2017-09-21T16:43:45.454Z,41.81
2017-09-21T16:46:12.947Z,41.90
2017-09-21T16:48:40.437Z,42.33
2017-09-21T16:51:07.898Z,42.57
2017-09-21T16:53:35.386Z,43.62
2017-09-21T16:56:02.928Z,43.82
2017-09-21T16:58:30.435Z,44.04
2017-09-21T17:00:57.893Z,44.37
2017-09-21T17:03:26.745Z,44.67
2017-09-21T17:05:54.296Z,45.01
2017-09-21T17:08:21.768Z,45.31
2017-09-21T17:10:49.252Z,45.46
2017-09-21T17:13:16.828Z,45.53
2017-09-21T17:15:44.346Z,45.56
2017-09-21T17:18:11.821Z,45.75
2017-09-21T17:20:40.336Z,45.59
2017-09-21T17:23:07.905Z,45.52
2017-09-21T17:25:36.774Z,45.65
2017-09-21T17:28:04.289Z,45.88
2017-09-21T17:30:31.846Z,46.33
2017-09-21T17:33:01.504Z,46.49
2017-09-21T17:35:30.617Z,47.06
2017-09-21T17:37:58.142Z,47.23
2017-09-21T17:40:25.644Z,47.20
2017-09-21T17:42:53.149Z,47.00
2017-09-21T17:45:21.128Z,47.34
2017-09-21T17:47:52.878Z,47.10
2017-09-21T17:50:20.403Z,47.85
2017-09-21T17:52:47.892Z,48.46
2017-09-21T17:55:15.588Z,49.13
2017-09-21T17:57:43.439Z,49.61
2017-09-21T18:00:10.977Z,49.87
2017-09-21T18:02:38.544Z,50.44
2017-09-21T18:05:06.083Z,50.84
2017-09-21T18:07:33.572Z,50.94
2017-09-21T18:10:01.093Z,51.48
2017-09-21T18:12:28.618Z,51.29
2017-09-21T18:14:56.314Z,51.57
2017-09-21T18:17:23.842Z,51.89
2017-09-21T18:19:51.337Z,51.95
2017-09-21T18:22:18.927Z,52.05
2017-09-21T18:24:46.434Z,52.03
2017-09-21T18:27:14.222Z,52.26
2017-09-21T18:29:41.740Z,52.34
2017-09-21T18:32:09.331Z,52.55
2017-09-21T18:34:37.044Z,52.63
2017-09-21T18:37:04.511Z,52.97
2017-09-21T18:39:32.081Z,53.04
2017-09-21T18:41:59.565Z,53.51
2017-09-21T18:44:27.051Z,53.50
2017-09-21T18:46:54.553Z,53.82
2017-09-21T18:49:22.024Z,53.71
2017-09-21T18:51:49.530Z,53.46
2017-09-21T18:54:17.026Z,53.67
2017-09-21T18:56:44.549Z,53.57
2017-09-21T18:59:12.044Z,53.84
2017-09-21T19:01:39.554Z,54.11
2017-09-21T19:04:07.105Z,54.07
2017-09-21T19:06:34.576Z,54.20
2017-09-21T19:09:02.118Z,54.26
2017-09-21T19:11:29.599Z,54.83
2017-09-21T19:13:57.148Z,54.79
2017-09-21T19:16:24.623Z,54.97
2017-09-21T19:18:52.154Z,54.89
2017-09-21T19:21:19.656Z,55.27
2017-09-21T19:23:47.129Z,55.53
2017-09-21T19:26:14.662Z,55.60
2017-09-21T19:28:42.167Z,56.11
2017-09-21T19:31:09.648Z,56.36
2017-09-21T19:33:37.180Z,56.12
2017-09-21T19:36:04.744Z,56.61
2017-09-21T19:38:32.318Z,57.27
2017-09-21T19:40:59.874Z,57.00
2017-09-21T19:43:27.449Z,57.18
2017-09-21T19:45:55.279Z,57.25
2017-09-21T19:48:22.793Z,57.79
2017-09-21T19:50:50.297Z,57.57
2017-09-21T19:53:17.858Z,57.91
2017-09-21T19:55:45.506Z,57.95
2017-09-21T19:58:13.191Z,58.97
2017-09-21T20:00:40.717Z,59.39
2017-09-21T20:03:08.278Z,58.89
2017-09-21T20:05:35.966Z,59.12
2017-09-21T20:08:03.517Z,58.62
2017-09-21T20:10:31.019Z,59.53
2017-09-21T20:12:58.560Z,59.21
2017-09-21T20:15:26.214Z,59.43
2017-09-21T20:17:53.690Z,59.50
2017-09-21T20:20:21.377Z,59.40
2017-09-21T20:22:48.885Z,59.20
2017-09-21T20:25:16.558Z,59.32
2017-09-21T20:27:44.308Z,59.69
2017-09-21T20:30:15.382Z,60.13
2017-09-21T20:32:43.551Z,60.51
2017-09-21T20:35:11.139Z,60.53
2017-09-21T20:37:41.535Z,59.82
2017-09-21T20:40:11.787Z,59.82
2017-09-21T20:42:39.282Z,60.01
2017-09-21T20:45:06.913Z,60.24
2017-09-21T20:50:09.687Z,60.84
2017-09-21T20:52:37.183Z,61.08
2017-09-21T20:55:04.684Z,60.89
2017-09-21T20:57:32.155Z,61.31
2017-09-21T20:59:59.657Z,61.13
2017-09-21T21:02:27.183Z,61.08
2017-09-21T21:04:55.746Z,61.04
2017-09-21T21:07:23.673Z,61.97
2017-09-21T21:09:51.160Z,61.46
2017-09-21T21:12:18.666Z,61.32
2017-09-21T21:14:46.176Z,61.39
2017-09-21T21:17:13.715Z,61.40
2017-09-21T21:19:41.233Z,61.44
2017-09-21T21:22:08.776Z,61.96
2017-09-21T21:24:36.287Z,62.09
2017-09-21T21:27:03.806Z,62.12
2017-09-21T21:29:31.323Z,62.10
2017-09-21T21:31:58.848Z,62.53
2017-09-21T21:34:26.345Z,62.63
2017-09-21T21:36:53.887Z,62.91
2017-09-21T21:39:21.387Z,62.91
2017-09-21T21:41:48.906Z,63.45
2017-09-21T21:44:16.469Z,63.07
2017-09-21T21:46:44.003Z,63.03
2017-09-21T21:49:11.548Z,62.90
2017-09-21T21:51:40.069Z,62.79
2017-09-21T21:54:07.568Z,62.88
2017-09-21T21:56:35.451Z,63.07
2017-09-21T21:59:02.928Z,63.35
2017-09-21T22:01:30.578Z,64.22
2017-09-21T22:03:58.081Z,63.73
2017-09-21T22:06:26.217Z,64.00
2017-09-21T22:08:53.848Z,64.07
2017-09-21T22:11:21.370Z,64.12
2017-09-21T22:13:48.960Z,65.14
2017-09-21T22:16:16.478Z,65.49
2017-09-21T22:18:44.614Z,64.92
2017-09-21T22:21:12.310Z,64.48
2017-09-21T22:23:39.790Z,64.32
2017-09-21T22:26:07.332Z,64.41
2017-09-21T22:28:34.843Z,64.53
2017-09-21T22:31:02.341Z,64.45
2017-09-21T22:33:29.869Z,64.34
2017-09-21T22:35:57.418Z,64.27
2017-09-21T22:38:25.090Z,64.25
2017-09-21T22:40:52.610Z,64.37
2017-09-21T22:43:20.143Z,65.03
2017-09-21T22:45:47.625Z,64.29
2017-09-21T22:48:15.136Z,64.47
2017-09-21T22:50:42.840Z,64.47
2017-09-21T22:53:10.512Z,64.52
2017-09-21T22:55:38.117Z,64.35
2017-09-21T22:58:05.968Z,66.52
2017-09-21T23:00:33.518Z,65.15
2017-09-21T23:03:01.036Z,65.05
2017-09-21T23:05:28.564Z,65.04
2017-09-21T23:07:56.089Z,65.17
2017-09-21T23:10:23.574Z,65.10
2017-09-21T23:12:51.057Z,65.27
2017-09-21T23:15:18.561Z,65.92
2017-09-21T23:17:46.094Z,65.91
2017-09-21T23:20:13.605Z,65.39
2017-09-21T23:22:41.113Z,65.30
2017-09-21T23:25:08.611Z,65.34
2017-09-21T23:30:44.335Z,65.34
2017-09-21T23:33:11.918Z,65.36
2017-09-21T23:35:39.420Z,65.40
2017-09-21T23:38:06.913Z,65.36
2017-09-21T23:40:34.600Z,65.77
2017-09-21T23:43:02.125Z,66.08
2017-09-21T23:45:29.663Z,66.42
2017-09-21T23:48:00.856Z,66.40
2017-09-21T23:50:30.971Z,67.20
2017-09-21T23:52:58.547Z,66.84
2017-09-21T23:55:26.032Z,68.02
2017-09-21T23:57:53.508Z,67.74
